sensor_id;sensor_type;location;lat;lon;timestamp;P1;durP1;ratioP1;P2;durP2;ratioP2
10769;SDS011;5437;50.852;4.438;2023-04-24T00:01:17;15.07;;;11.75;;
10769;SDS011;5437;50.852;4.438;2023-04-24T00:03:44;16.65;;;10.57;;
10769;SDS011;5437;50.852;4.438;2023-04-24T00:06:10;15.73;;;11.25;;
10769;SDS011;5437;50.852;4.438;2023-04-24T00:08:36;14.50;;;10.80;;
10769;SDS011;5437;50.852;4.438;2023-04-24T00:11:02;14.40;;;10.77;;
10769;SDS011;5437;50.852;4.438;2023-04-24T00:13:28;14.52;;;10.90;;
10769;SDS011;5437;50.852;4.438;2023-04-24T00:15:55;16.33;;;11.70;;
10769;SDS011;5437;50.852;4.438;2023-04-24T00:18:21;16.05;;;11.02;;
10769;SDS011;5437;50.852;4.438;2023-04-24T00:20:47;16.00;;;11.20;;
10769;SDS011;5437;50.852;4.438;2023-04-24T00:23:13;14.38;;;10.85;;
10769;SDS011;5437;50.852;4.438;2023-04-24T00:25:39;16.50;;;10.88;;
10769;SDS011;5437;50.852;4.438;2023-04-24T00:28:05;14.80;;;10.73;;
10769;SDS011;5437;50.852;4.438;2023-04-24T00:30:31;16.23;;;11.55;;
10769;SDS011;5437;50.852;4.438;2023-04-24T00:32:57;18.27;;;11.95;;
10769;SDS011;5437;50.852;4.438;2023-04-24T00:35:23;18.45;;;11.88;;
10769;SDS011;5437;50.852;4.438;2023-04-24T00:37:49;18.83;;;11.82;;
10769;SDS011;5437;50.852;4.438;2023-04-24T00:40:16;15.15;;;11.13;;
10769;SDS011;5437;50.852;4.438;2023-04-24T00:42:42;15.60;;;11.90;;
10769;SDS011;5437;50.852;4.438;2023-04-24T00:45:09;19.00;;;13.07;;
10769;SDS011;5437;50.852;4.438;2023-04-24T00:47:35;18.10;;;12.43;;
10769;SDS011;5437;50.852;4.438;2023-04-24T00:50:02;18.73;;;12.32;;
10769;SDS011;5437;50.852;4.438;2023-04-24T00:52:28;18.92;;;12.23;;
10769;SDS011;5437;50.852;4.438;2023-04-24T00:54:57;17.58;;;11.75;;
10769;SDS011;5437;50.852;4.438;2023-04-24T00:57:23;17.95;;;10.77;;
10769;SDS011;5437;50.852;4.438;2023-04-24T00:59:49;16.45;;;11.43;;
10769;SDS011;5437;50.852;4.438;2023-04-24T01:02:16;14.15;;;11.30;;
10769;SDS011;5437;50.852;4.438;2023-04-24T01:04:42;14.00;;;11.50;;
10769;SDS011;5437;50.852;4.438;2023-04-24T01:07:08;16.92;;;11.45;;
10769;SDS011;5437;50.852;4.438;2023-04-24T01:09:42;18.10;;;11.13;;
10769;SDS011;5437;50.852;4.438;2023-04-24T01:12:12;14.75;;;11.35;;
10769;SDS011;5437;50.852;4.438;2023-04-24T01:14:38;17.90;;;11.52;;
10769;SDS011;5437;50.852;4.438;2023-04-24T01:17:04;14.55;;;11.80;;
10769;SDS011;5437;50.852;4.438;2023-04-24T01:19:31;16.08;;;11.35;;
10769;SDS011;5437;50.852;4.438;2023-04-24T01:21:58;16.35;;;11.02;;
10769;SDS011;5437;50.852;4.438;2023-04-24T01:24:24;15.98;;;11.48;;
10769;SDS011;5437;50.852;4.438;2023-04-24T01:26:50;14.48;;;11.18;;
10769;SDS011;5437;50.852;4.438;2023-04-24T01:29:16;14.82;;;11.18;;
10769;SDS011;5437;50.852;4.438;2023-04-24T01:31:43;15.68;;;11.45;;
10769;SDS011;5437;50.852;4.438;2023-04-24T01:34:09;12.70;;;10.40;;
10769;SDS011;5437;50.852;4.438;2023-04-24T01:36:35;16.63;;;10.77;;
10769;SDS011;5437;50.852;4.438;2023-04-24T01:39:01;15.45;;;10.45;;
10769;SDS011;5437;50.852;4.438;2023-04-24T01:41:28;15.50;;;11.02;;
10769;SDS011;5437;50.852;4.438;2023-04-24T01:43:55;14.85;;;9.60;;
10769;SDS011;5437;50.852;4.438;2023-04-24T01:46:23;12.10;;;9.88;;
10769;SDS011;5437;50.852;4.438;2023-04-24T01:48:49;14.57;;;10.00;;
10769;SDS011;5437;50.852;4.438;2023-04-24T01:51:16;13.70;;;10.40;;
10769;SDS011;5437;50.852;4.438;2023-04-24T01:53:42;11.40;;;10.00;;
10769;SDS011;5437;50.852;4.438;2023-04-24T01:56:10;13.38;;;9.93;;
10769;SDS011;5437;50.852;4.438;2023-04-24T01:58:36;12.80;;;10.88;;
10769;SDS011;5437;50.852;4.438;2023-04-24T02:01:02;14.30;;;10.20;;
10769;SDS011;5437;50.852;4.438;2023-04-24T02:03:29;15.13;;;10.88;;
10769;SDS011;5437;50.852;4.438;2023-04-24T02:05:55;13.80;;;10.07;;
10769;SDS011;5437;50.852;4.438;2023-04-24T02:08:21;11.32;;;9.18;;
10769;SDS011;5437;50.852;4.438;2023-04-24T02:10:47;12.35;;;9.95;;
10769;SDS011;5437;50.852;4.438;2023-04-24T02:13:13;11.60;;;9.57;;
10769;SDS011;5437;50.852;4.438;2023-04-24T02:15:39;13.25;;;10.40;;
10769;SDS011;5437;50.852;4.438;2023-04-24T02:18:05;12.50;;;10.25;;
10769;SDS011;5437;50.852;4.438;2023-04-24T02:20:31;12.93;;;11.27;;
10769;SDS011;5437;50.852;4.438;2023-04-24T02:23:00;15.68;;;11.73;;
10769;SDS011;5437;50.852;4.438;2023-04-24T02:25:26;17.13;;;12.02;;
10769;SDS011;5437;50.852;4.438;2023-04-24T02:27:52;13.82;;;10.40;;
10769;SDS011;5437;50.852;4.438;2023-04-24T02:30:18;16.23;;;11.75;;
10769;SDS011;5437;50.852;4.438;2023-04-24T02:32:44;15.48;;;12.55;;
10769;SDS011;5437;50.852;4.438;2023-04-24T02:35:10;15.40;;;11.65;;
10769;SDS011;5437;50.852;4.438;2023-04-24T02:37:37;13.40;;;11.20;;
10769;SDS011;5437;50.852;4.438;2023-04-24T02:40:03;14.32;;;11.90;;
10769;SDS011;5437;50.852;4.438;2023-04-24T02:42:30;12.55;;;10.77;;
10769;SDS011;5437;50.852;4.438;2023-04-24T02:44:56;15.32;;;11.23;;
10769;SDS011;5437;50.852;4.438;2023-04-24T02:47:23;14.18;;;11.32;;
10769;SDS011;5437;50.852;4.438;2023-04-24T02:49:49;13.75;;;11.07;;
10769;SDS011;5437;50.852;4.438;2023-04-24T02:52:15;14.15;;;11.20;;
10769;SDS011;5437;50.852;4.438;2023-04-24T02:54:42;15.82;;;10.82;;
10769;SDS011;5437;50.852;4.438;2023-04-24T02:57:08;13.85;;;11.18;;
10769;SDS011;5437;50.852;4.438;2023-04-24T02:59:34;13.88;;;10.48;;
10769;SDS011;5437;50.852;4.438;2023-04-24T03:02:00;15.10;;;11.23;;
10769;SDS011;5437;50.852;4.438;2023-04-24T03:04:26;14.30;;;10.50;;
10769;SDS011;5437;50.852;4.438;2023-04-24T03:06:52;12.60;;;10.80;;
10769;SDS011;5437;50.852;4.438;2023-04-24T03:09:20;12.98;;;10.23;;
10769;SDS011;5437;50.852;4.438;2023-04-24T03:11:46;12.27;;;9.88;;
10769;SDS011;5437;50.852;4.438;2023-04-24T03:14:13;12.00;;;9.93;;
10769;SDS011;5437;50.852;4.438;2023-04-24T03:16:39;12.85;;;9.02;;
10769;SDS011;5437;50.852;4.438;2023-04-24T03:19:05;11.32;;;8.88;;
10769;SDS011;5437;50.852;4.438;2023-04-24T03:21:32;11.07;;;8.73;;
10769;SDS011;5437;50.852;4.438;2023-04-24T03:23:58;11.60;;;8.85;;
10769;SDS011;5437;50.852;4.438;2023-04-24T03:26:24;13.52;;;8.55;;
10769;SDS011;5437;50.852;4.438;2023-04-24T03:28:50;9.75;;;8.02;;
10769;SDS011;5437;50.852;4.438;2023-04-24T03:31:16;9.73;;;8.10;;
10769;SDS011;5437;50.852;4.438;2023-04-24T03:33:44;9.55;;;7.75;;
10769;SDS011;5437;50.852;4.438;2023-04-24T03:36:10;10.07;;;7.63;;
10769;SDS011;5437;50.852;4.438;2023-04-24T03:38:36;10.02;;;8.10;;
10769;SDS011;5437;50.852;4.438;2023-04-24T03:41:02;9.85;;;8.27;;
10769;SDS011;5437;50.852;4.438;2023-04-24T03:43:28;8.35;;;7.40;;
10769;SDS011;5437;50.852;4.438;2023-04-24T03:45:54;12.52;;;8.20;;
10769;SDS011;5437;50.852;4.438;2023-04-24T03:48:20;9.77;;;8.00;;
10769;SDS011;5437;50.852;4.438;2023-04-24T03:50:46;7.72;;;6.72;;
10769;SDS011;5437;50.852;4.438;2023-04-24T03:53:12;9.00;;;6.53;;
10769;SDS011;5437;50.852;4.438;2023-04-24T03:55:38;6.93;;;5.95;;
10769;SDS011;5437;50.852;4.438;2023-04-24T03:58:04;8.85;;;6.57;;
10769;SDS011;5437;50.852;4.438;2023-04-24T04:00:30;7.93;;;6.97;;
10769;SDS011;5437;50.852;4.438;2023-04-24T04:02:57;8.10;;;6.22;;
10769;SDS011;5437;50.852;4.438;2023-04-24T04:05:23;7.82;;;6.65;;
10769;SDS011;5437;50.852;4.438;2023-04-24T04:07:49;8.80;;;6.38;;
10769;SDS011;5437;50.852;4.438;2023-04-24T04:10:15;6.75;;;5.75;;
10769;SDS011;5437;50.852;4.438;2023-04-24T04:12:42;7.40;;;6.07;;
10769;SDS011;5437;50.852;4.438;2023-04-24T04:15:08;8.30;;;5.97;;
10769;SDS011;5437;50.852;4.438;2023-04-24T04:17:34;5.57;;;5.07;;
10769;SDS011;5437;50.852;4.438;2023-04-24T04:20:00;8.38;;;5.53;;
10769;SDS011;5437;50.852;4.438;2023-04-24T04:22:30;7.38;;;5.63;;
10769;SDS011;5437;50.852;4.438;2023-04-24T04:24:56;6.63;;;5.25;;
10769;SDS011;5437;50.852;4.438;2023-04-24T04:27:22;7.57;;;5.93;;
10769;SDS011;5437;50.852;4.438;2023-04-24T04:29:48;6.10;;;5.50;;
10769;SDS011;5437;50.852;4.438;2023-04-24T04:32:15;7.32;;;5.70;;
10769;SDS011;5437;50.852;4.438;2023-04-24T04:34:41;5.93;;;5.20;;
10769;SDS011;5437;50.852;4.438;2023-04-24T04:37:07;6.60;;;5.60;;
10769;SDS011;5437;50.852;4.438;2023-04-24T04:39:35;5.93;;;5.10;;
10769;SDS011;5437;50.852;4.438;2023-04-24T04:42:01;6.20;;;5.60;;
10769;SDS011;5437;50.852;4.438;2023-04-24T04:44:27;5.63;;;5.10;;
10769;SDS011;5437;50.852;4.438;2023-04-24T04:46:55;5.93;;;5.20;;
10769;SDS011;5437;50.852;4.438;2023-04-24T04:49:21;7.07;;;5.78;;
10769;SDS011;5437;50.852;4.438;2023-04-24T04:51:48;6.60;;;5.90;;
10769;SDS011;5437;50.852;4.438;2023-04-24T04:54:15;6.53;;;5.63;;
10769;SDS011;5437;50.852;4.438;2023-04-24T04:56:42;9.75;;;5.72;;
10769;SDS011;5437;50.852;4.438;2023-04-24T04:59:08;8.02;;;5.70;;
10769;SDS011;5437;50.852;4.438;2023-04-24T05:01:34;7.13;;;5.90;;
10769;SDS011;5437;50.852;4.438;2023-04-24T05:04:00;9.10;;;6.38;;
10769;SDS011;5437;50.852;4.438;2023-04-24T05:06:26;8.70;;;7.22;;
10769;SDS011;5437;50.852;4.438;2023-04-24T05:08:52;10.43;;;8.35;;
10769;SDS011;5437;50.852;4.438;2023-04-24T05:11:22;10.50;;;8.02;;
10769;SDS011;5437;50.852;4.438;2023-04-24T05:13:48;10.30;;;7.93;;
10769;SDS011;5437;50.852;4.438;2023-04-24T05:16:14;14.30;;;8.73;;
10769;SDS011;5437;50.852;4.438;2023-04-24T05:18:40;10.13;;;7.93;;
10769;SDS011;5437;50.852;4.438;2023-04-24T05:21:06;10.80;;;8.65;;
10769;SDS011;5437;50.852;4.438;2023-04-24T05:23:32;11.25;;;8.95;;
10769;SDS011;5437;50.852;4.438;2023-04-24T05:25:58;13.00;;;9.82;;
10769;SDS011;5437;50.852;4.438;2023-04-24T05:28:24;13.25;;;9.10;;
10769;SDS011;5437;50.852;4.438;2023-04-24T05:30:53;14.95;;;9.65;;
10769;SDS011;5437;50.852;4.438;2023-04-24T05:33:20;10.52;;;8.60;;
10769;SDS011;5437;50.852;4.438;2023-04-24T05:35:47;11.80;;;8.85;;
10769;SDS011;5437;50.852;4.438;2023-04-24T05:38:13;14.63;;;9.70;;
10769;SDS011;5437;50.852;4.438;2023-04-24T05:40:42;14.15;;;10.00;;
10769;SDS011;5437;50.852;4.438;2023-04-24T05:43:08;13.15;;;9.40;;
10769;SDS011;5437;50.852;4.438;2023-04-24T05:45:34;13.32;;;8.93;;
10769;SDS011;5437;50.852;4.438;2023-04-24T05:48:01;14.80;;;10.13;;
10769;SDS011;5437;50.852;4.438;2023-04-24T05:50:27;12.73;;;9.35;;
10769;SDS011;5437;50.852;4.438;2023-04-24T05:52:53;13.55;;;9.43;;
10769;SDS011;5437;50.852;4.438;2023-04-24T05:55:19;12.20;;;9.15;;
10769;SDS011;5437;50.852;4.438;2023-04-24T05:57:45;16.23;;;10.20;;
10769;SDS011;5437;50.852;4.438;2023-04-24T06:00:12;12.18;;;9.35;;
10769;SDS011;5437;50.852;4.438;2023-04-24T06:02:38;12.40;;;9.43;;
10769;SDS011;5437;50.852;4.438;2023-04-24T06:05:04;13.20;;;9.48;;
10769;SDS011;5437;50.852;4.438;2023-04-24T06:07:31;11.77;;;10.15;;
10769;SDS011;5437;50.852;4.438;2023-04-24T06:09:57;13.15;;;10.10;;
10769;SDS011;5437;50.852;4.438;2023-04-24T06:12:26;13.85;;;10.15;;
10769;SDS011;5437;50.852;4.438;2023-04-24T06:14:52;13.27;;;10.13;;
10769;SDS011;5437;50.852;4.438;2023-04-24T06:17:20;17.63;;;10.90;;
10769;SDS011;5437;50.852;4.438;2023-04-24T06:19:46;14.98;;;10.38;;
10769;SDS011;5437;50.852;4.438;2023-04-24T06:22:12;14.95;;;10.57;;
10769;SDS011;5437;50.852;4.438;2023-04-24T06:24:41;15.65;;;10.25;;
10769;SDS011;5437;50.852;4.438;2023-04-24T06:27:10;17.75;;;10.75;;
10769;SDS011;5437;50.852;4.438;2023-04-24T06:29:36;16.55;;;10.90;;
10769;SDS011;5437;50.852;4.438;2023-04-24T06:32:03;15.20;;;10.45;;
10769;SDS011;5437;50.852;4.438;2023-04-24T06:34:29;18.85;;;10.77;;
10769;SDS011;5437;50.852;4.438;2023-04-24T06:36:55;15.60;;;10.95;;
10769;SDS011;5437;50.852;4.438;2023-04-24T06:39:22;16.83;;;11.50;;
10769;SDS011;5437;50.852;4.438;2023-04-24T06:41:48;15.95;;;10.82;;
10769;SDS011;5437;50.852;4.438;2023-04-24T06:44:14;15.10;;;11.82;;
10769;SDS011;5437;50.852;4.438;2023-04-24T06:46:40;16.25;;;11.82;;
10769;SDS011;5437;50.852;4.438;2023-04-24T06:49:06;18.23;;;11.73;;
10769;SDS011;5437;50.852;4.438;2023-04-24T06:51:32;20.20;;;12.40;;
10769;SDS011;5437;50.852;4.438;2023-04-24T06:53:58;20.70;;;12.50;;
10769;SDS011;5437;50.852;4.438;2023-04-24T06:56:25;20.42;;;12.52;;
10769;SDS011;5437;50.852;4.438;2023-04-24T06:58:51;18.33;;;12.45;;
10769;SDS011;5437;50.852;4.438;2023-04-24T07:01:18;18.83;;;12.65;;
10769;SDS011;5437;50.852;4.438;2023-04-24T07:03:44;20.15;;;13.30;;
10769;SDS011;5437;50.852;4.438;2023-04-24T07:06:10;20.60;;;14.83;;
10769;SDS011;5437;50.852;4.438;2023-04-24T07:08:37;18.88;;;13.55;;
10769;SDS011;5437;50.852;4.438;2023-04-24T07:11:03;20.45;;;13.20;;
10769;SDS011;5437;50.852;4.438;2023-04-24T07:13:29;19.60;;;13.13;;
10769;SDS011;5437;50.852;4.438;2023-04-24T07:15:55;18.55;;;12.60;;
10769;SDS011;5437;50.852;4.438;2023-04-24T07:18:22;19.10;;;12.65;;
10769;SDS011;5437;50.852;4.438;2023-04-24T07:20:48;20.70;;;13.05;;
10769;SDS011;5437;50.852;4.438;2023-04-24T07:23:17;18.58;;;12.25;;
10769;SDS011;5437;50.852;4.438;2023-04-24T07:25:43;19.92;;;12.38;;
10769;SDS011;5437;50.852;4.438;2023-04-24T07:28:10;17.77;;;11.95;;
10769;SDS011;5437;50.852;4.438;2023-04-24T07:30:36;17.55;;;11.98;;
10769;SDS011;5437;50.852;4.438;2023-04-24T07:33:02;20.85;;;10.55;;
10769;SDS011;5437;50.852;4.438;2023-04-24T07:35:28;15.77;;;10.70;;
10769;SDS011;5437;50.852;4.438;2023-04-24T07:37:54;16.35;;;10.27;;
10769;SDS011;5437;50.852;4.438;2023-04-24T07:40:20;13.98;;;9.43;;
10769;SDS011;5437;50.852;4.438;2023-04-24T07:42:47;14.07;;;8.98;;
10769;SDS011;5437;50.852;4.438;2023-04-24T07:45:16;13.40;;;8.80;;
10769;SDS011;5437;50.852;4.438;2023-04-24T07:47:42;12.85;;;8.75;;
10769;SDS011;5437;50.852;4.438;2023-04-24T07:50:10;7.72;;;6.70;;
10769;SDS011;5437;50.852;4.438;2023-04-24T07:52:36;9.45;;;6.63;;
10769;SDS011;5437;50.852;4.438;2023-04-24T07:55:02;9.38;;;6.90;;
10769;SDS011;5437;50.852;4.438;2023-04-24T07:57:28;13.98;;;8.23;;
10769;SDS011;5437;50.852;4.438;2023-04-24T07:59:54;12.93;;;7.55;;
10769;SDS011;5437;50.852;4.438;2023-04-24T08:02:21;12.07;;;8.20;;
10769;SDS011;5437;50.852;4.438;2023-04-24T08:04:51;14.15;;;9.10;;
10769;SDS011;5437;50.852;4.438;2023-04-24T08:07:18;15.52;;;9.77;;
10769;SDS011;5437;50.852;4.438;2023-04-24T08:09:44;15.00;;;9.98;;
10769;SDS011;5437;50.852;4.438;2023-04-24T08:12:10;15.35;;;10.15;;
10769;SDS011;5437;50.852;4.438;2023-04-24T08:14:36;13.07;;;9.15;;
10769;SDS011;5437;50.852;4.438;2023-04-24T08:17:05;16.20;;;8.98;;
10769;SDS011;5437;50.852;4.438;2023-04-24T08:19:31;12.93;;;8.52;;
10769;SDS011;5437;50.852;4.438;2023-04-24T08:21:58;14.45;;;8.30;;
10769;SDS011;5437;50.852;4.438;2023-04-24T08:24:24;10.98;;;7.10;;
10769;SDS011;5437;50.852;4.438;2023-04-24T08:26:50;13.55;;;8.52;;
10769;SDS011;5437;50.852;4.438;2023-04-24T08:29:16;11.43;;;7.88;;
10769;SDS011;5437;50.852;4.438;2023-04-24T08:31:42;12.48;;;7.22;;
10769;SDS011;5437;50.852;4.438;2023-04-24T08:34:09;9.10;;;7.20;;
10769;SDS011;5437;50.852;4.438;2023-04-24T08:36:35;11.70;;;7.28;;
10769;SDS011;5437;50.852;4.438;2023-04-24T08:39:01;11.90;;;7.53;;
10769;SDS011;5437;50.852;4.438;2023-04-24T08:41:27;10.07;;;7.43;;
10769;SDS011;5437;50.852;4.438;2023-04-24T08:43:53;12.95;;;7.65;;
10769;SDS011;5437;50.852;4.438;2023-04-24T08:46:23;9.68;;;6.07;;
10769;SDS011;5437;50.852;4.438;2023-04-24T08:48:50;9.30;;;6.28;;
10769;SDS011;5437;50.852;4.438;2023-04-24T08:51:17;13.48;;;6.20;;
10769;SDS011;5437;50.852;4.438;2023-04-24T08:53:43;9.45;;;6.07;;
10769;SDS011;5437;50.852;4.438;2023-04-24T08:56:10;10.40;;;6.18;;
10769;SDS011;5437;50.852;4.438;2023-04-24T08:58:37;8.18;;;4.90;;
10769;SDS011;5437;50.852;4.438;2023-04-24T09:01:04;7.95;;;5.20;;
10769;SDS011;5437;50.852;4.438;2023-04-24T09:03:30;8.98;;;4.72;;
10769;SDS011;5437;50.852;4.438;2023-04-24T09:05:57;8.88;;;4.43;;
10769;SDS011;5437;50.852;4.438;2023-04-24T09:08:24;7.35;;;4.55;;
10769;SDS011;5437;50.852;4.438;2023-04-24T09:10:50;7.78;;;4.75;;
10769;SDS011;5437;50.852;4.438;2023-04-24T09:13:17;6.60;;;4.20;;
10769;SDS011;5437;50.852;4.438;2023-04-24T09:15:44;6.82;;;4.53;;
10769;SDS011;5437;50.852;4.438;2023-04-24T09:18:10;8.52;;;4.75;;
10769;SDS011;5437;50.852;4.438;2023-04-24T09:23:21;8.05;;;4.43;;
10769;SDS011;5437;50.852;4.438;2023-04-24T09:25:48;9.07;;;4.30;;
10769;SDS011;5437;50.852;4.438;2023-04-24T09:28:20;6.57;;;3.90;;
10769;SDS011;5437;50.852;4.438;2023-04-24T09:31:01;5.78;;;3.80;;
10769;SDS011;5437;50.852;4.438;2023-04-24T09:33:27;7.72;;;3.97;;
10769;SDS011;5437;50.852;4.438;2023-04-24T09:35:53;7.45;;;3.90;;
10769;SDS011;5437;50.852;4.438;2023-04-24T09:38:20;8.18;;;4.13;;
10769;SDS011;5437;50.852;4.438;2023-04-24T09:40:58;7.57;;;4.22;;
10769;SDS011;5437;50.852;4.438;2023-04-24T09:43:26;7.88;;;4.25;;
10769;SDS011;5437;50.852;4.438;2023-04-24T09:45:53;7.07;;;3.90;;
10769;SDS011;5437;50.852;4.438;2023-04-24T09:48:29;8.25;;;4.55;;
10769;SDS011;5437;50.852;4.438;2023-04-24T09:50:55;6.78;;;4.22;;
10769;SDS011;5437;50.852;4.438;2023-04-24T09:53:23;7.20;;;3.58;;
10769;SDS011;5437;50.852;4.438;2023-04-24T09:55:50;6.97;;;3.78;;
10769;SDS011;5437;50.852;4.438;2023-04-24T09:58:17;8.05;;;3.75;;
10769;SDS011;5437;50.852;4.438;2023-04-24T10:00:44;6.50;;;3.65;;
10769;SDS011;5437;50.852;4.438;2023-04-24T10:03:11;6.18;;;3.35;;
10769;SDS011;5437;50.852;4.438;2023-04-24T10:05:37;5.10;;;3.22;;
10769;SDS011;5437;50.852;4.438;2023-04-24T10:08:04;6.32;;;3.78;;
10769;SDS011;5437;50.852;4.438;2023-04-24T10:10:31;5.35;;;3.60;;
10769;SDS011;5437;50.852;4.438;2023-04-24T10:12:58;4.95;;;3.38;;
10769;SDS011;5437;50.852;4.438;2023-04-24T10:15:25;6.50;;;3.65;;
10769;SDS011;5437;50.852;4.438;2023-04-24T10:17:52;4.05;;;3.60;;
10769;SDS011;5437;50.852;4.438;2023-04-24T10:20:19;5.18;;;3.40;;
10769;SDS011;5437;50.852;4.438;2023-04-24T10:22:47;4.57;;;3.47;;
10769;SDS011;5437;50.852;4.438;2023-04-24T10:25:15;7.28;;;3.60;;
10769;SDS011;5437;50.852;4.438;2023-04-24T10:27:42;6.80;;;3.80;;
10769;SDS011;5437;50.852;4.438;2023-04-24T10:30:09;5.55;;;3.20;;
10769;SDS011;5437;50.852;4.438;2023-04-24T10:32:36;10.45;;;7.93;;
10769;SDS011;5437;50.852;4.438;2023-04-24T10:35:03;8.23;;;4.10;;
10769;SDS011;5437;50.852;4.438;2023-04-24T10:37:29;7.32;;;4.28;;
10769;SDS011;5437;50.852;4.438;2023-04-24T10:40:01;4.72;;;3.88;;
10769;SDS011;5437;50.852;4.438;2023-04-24T10:42:27;5.97;;;3.72;;
10769;SDS011;5437;50.852;4.438;2023-04-24T10:44:53;5.32;;;3.88;;
10769;SDS011;5437;50.852;4.438;2023-04-24T10:47:20;5.85;;;3.40;;
10769;SDS011;5437;50.852;4.438;2023-04-24T10:49:46;7.43;;;3.90;;
10769;SDS011;5437;50.852;4.438;2023-04-24T10:52:19;6.78;;;4.18;;
10769;SDS011;5437;50.852;4.438;2023-04-24T10:54:46;5.45;;;4.00;;
10769;SDS011;5437;50.852;4.438;2023-04-24T10:59:50;9.43;;;4.38;;
10769;SDS011;5437;50.852;4.438;2023-04-24T11:02:16;7.80;;;4.10;;
10769;SDS011;5437;50.852;4.438;2023-04-24T11:04:43;4.55;;;3.85;;
10769;SDS011;5437;50.852;4.438;2023-04-24T11:07:11;5.50;;;3.95;;
10769;SDS011;5437;50.852;4.438;2023-04-24T11:09:37;5.47;;;4.18;;
10769;SDS011;5437;50.852;4.438;2023-04-24T11:12:07;6.93;;;4.30;;
10769;SDS011;5437;50.852;4.438;2023-04-24T11:17:31;6.05;;;3.90;;
10769;SDS011;5437;50.852;4.438;2023-04-24T11:20:08;7.57;;;4.68;;
10769;SDS011;5437;50.852;4.438;2023-04-24T11:22:34;6.65;;;4.55;;
10769;SDS011;5437;50.852;4.438;2023-04-24T11:25:01;8.98;;;4.72;;
10769;SDS011;5437;50.852;4.438;2023-04-24T11:27:29;6.72;;;4.72;;
10769;SDS011;5437;50.852;4.438;2023-04-24T11:34:51;6.03;;;4.60;;
10769;SDS011;5437;50.852;4.438;2023-04-24T11:37:18;5.65;;;4.65;;
10769;SDS011;5437;50.852;4.438;2023-04-24T11:39:44;6.40;;;4.80;;
10769;SDS011;5437;50.852;4.438;2023-04-24T11:42:10;5.68;;;4.15;;
10769;SDS011;5437;50.852;4.438;2023-04-24T11:44:36;4.72;;;4.22;;
10769;SDS011;5437;50.852;4.438;2023-04-24T11:47:05;5.10;;;4.00;;
10769;SDS011;5437;50.852;4.438;2023-04-24T11:49:37;6.00;;;4.70;;
10769;SDS011;5437;50.852;4.438;2023-04-24T11:52:03;6.47;;;4.60;;
10769;SDS011;5437;50.852;4.438;2023-04-24T11:54:30;5.72;;;4.90;;
10769;SDS011;5437;50.852;4.438;2023-04-24T11:56:56;7.15;;;4.78;;
10769;SDS011;5437;50.852;4.438;2023-04-24T11:59:22;6.95;;;4.85;;
10769;SDS011;5437;50.852;4.438;2023-04-24T12:01:49;5.22;;;4.30;;
10769;SDS011;5437;50.852;4.438;2023-04-24T12:04:16;6.25;;;4.38;;
10769;SDS011;5437;50.852;4.438;2023-04-24T12:07:15;4.75;;;4.30;;
10769;SDS011;5437;50.852;4.438;2023-04-24T12:09:44;7.13;;;4.45;;
10769;SDS011;5437;50.852;4.438;2023-04-24T12:12:11;5.63;;;5.00;;
10769;SDS011;5437;50.852;4.438;2023-04-24T12:14:52;6.53;;;4.72;;
10769;SDS011;5437;50.852;4.438;2023-04-24T12:17:23;5.95;;;4.50;;
10769;SDS011;5437;50.852;4.438;2023-04-24T12:19:50;7.35;;;4.88;;
10769;SDS011;5437;50.852;4.438;2023-04-24T12:22:16;6.35;;;5.13;;
10769;SDS011;5437;50.852;4.438;2023-04-24T12:24:58;5.80;;;5.00;;
10769;SDS011;5437;50.852;4.438;2023-04-24T12:27:24;5.38;;;4.78;;
10769;SDS011;5437;50.852;4.438;2023-04-24T12:29:51;5.60;;;4.32;;
10769;SDS011;5437;50.852;4.438;2023-04-24T12:32:17;5.05;;;4.47;;
10769;SDS011;5437;50.852;4.438;2023-04-24T12:34:43;6.90;;;4.47;;
10769;SDS011;5437;50.852;4.438;2023-04-24T12:37:10;5.78;;;4.00;;
10769;SDS011;5437;50.852;4.438;2023-04-24T12:39:37;6.35;;;3.85;;
10769;SDS011;5437;50.852;4.438;2023-04-24T12:42:03;5.97;;;4.00;;
10769;SDS011;5437;50.852;4.438;2023-04-24T12:44:32;5.07;;;4.30;;
10769;SDS011;5437;50.852;4.438;2023-04-24T12:46:59;4.28;;;3.88;;
10769;SDS011;5437;50.852;4.438;2023-04-24T12:49:25;5.68;;;3.67;;
10769;SDS011;5437;50.852;4.438;2023-04-24T12:51:52;5.07;;;4.00;;
10769;SDS011;5437;50.852;4.438;2023-04-24T12:54:18;4.20;;;3.80;;
10769;SDS011;5437;50.852;4.438;2023-04-24T12:56:44;6.03;;;3.88;;
10769;SDS011;5437;50.852;4.438;2023-04-24T12:59:10;6.85;;;4.03;;
10769;SDS011;5437;50.852;4.438;2023-04-24T13:01:36;4.45;;;3.92;;
10769;SDS011;5437;50.852;4.438;2023-04-24T13:04:02;5.38;;;3.88;;
10769;SDS011;5437;50.852;4.438;2023-04-24T13:06:28;4.97;;;3.90;;
10769;SDS011;5437;50.852;4.438;2023-04-24T13:08:54;4.25;;;3.85;;
10769;SDS011;5437;50.852;4.438;2023-04-24T13:11:22;5.35;;;4.13;;
10769;SDS011;5437;50.852;4.438;2023-04-24T13:13:49;6.05;;;4.32;;
10769;SDS011;5437;50.852;4.438;2023-04-24T13:16:15;4.55;;;3.40;;
10769;SDS011;5437;50.852;4.438;2023-04-24T13:18:41;6.15;;;4.00;;
10769;SDS011;5437;50.852;4.438;2023-04-24T13:21:07;4.22;;;3.78;;
10769;SDS011;5437;50.852;4.438;2023-04-24T13:23:33;4.38;;;3.70;;
10769;SDS011;5437;50.852;4.438;2023-04-24T13:25:59;5.22;;;3.58;;
10769;SDS011;5437;50.852;4.438;2023-04-24T13:28:26;4.38;;;3.55;;
10769;SDS011;5437;50.852;4.438;2023-04-24T13:30:52;5.68;;;3.33;;
10769;SDS011;5437;50.852;4.438;2023-04-24T13:33:18;3.95;;;2.97;;
10769;SDS011;5437;50.852;4.438;2023-04-24T13:35:44;4.82;;;3.03;;
10769;SDS011;5437;50.852;4.438;2023-04-24T13:38:10;4.72;;;3.08;;
10769;SDS011;5437;50.852;4.438;2023-04-24T13:40:36;5.13;;;3.08;;
10769;SDS011;5437;50.852;4.438;2023-04-24T13:43:02;3.72;;;3.15;;
10769;SDS011;5437;50.852;4.438;2023-04-24T13:45:28;4.22;;;2.90;;
10769;SDS011;5437;50.852;4.438;2023-04-24T13:47:54;4.30;;;3.10;;
10769;SDS011;5437;50.852;4.438;2023-04-24T13:50:21;4.35;;;2.63;;
10769;SDS011;5437;50.852;4.438;2023-04-24T13:52:48;3.78;;;2.58;;
10769;SDS011;5437;50.852;4.438;2023-04-24T13:55:14;3.00;;;2.63;;
10769;SDS011;5437;50.852;4.438;2023-04-24T13:57:40;4.47;;;2.80;;
10769;SDS011;5437;50.852;4.438;2023-04-24T14:00:06;4.18;;;2.75;;
10769;SDS011;5437;50.852;4.438;2023-04-24T14:02:35;3.17;;;2.17;;
10769;SDS011;5437;50.852;4.438;2023-04-24T14:05:01;3.35;;;2.60;;
10769;SDS011;5437;50.852;4.438;2023-04-24T14:07:28;3.78;;;2.40;;
10769;SDS011;5437;50.852;4.438;2023-04-24T14:09:55;2.88;;;2.35;;
10769;SDS011;5437;50.852;4.438;2023-04-24T14:12:21;2.78;;;2.20;;
10769;SDS011;5437;50.852;4.438;2023-04-24T14:14:47;4.30;;;2.58;;
10769;SDS011;5437;50.852;4.438;2023-04-24T14:17:14;3.50;;;2.05;;
10769;SDS011;5437;50.852;4.438;2023-04-24T14:19:40;3.42;;;2.13;;
10769;SDS011;5437;50.852;4.438;2023-04-24T14:22:06;2.95;;;1.98;;
10769;SDS011;5437;50.852;4.438;2023-04-24T14:24:32;2.63;;;2.05;;
10769;SDS011;5437;50.852;4.438;2023-04-24T14:26:58;3.15;;;2.00;;
10769;SDS011;5437;50.852;4.438;2023-04-24T14:29:25;3.22;;;2.10;;
10769;SDS011;5437;50.852;4.438;2023-04-24T14:31:51;4.05;;;2.30;;
10769;SDS011;5437;50.852;4.438;2023-04-24T14:34:17;4.82;;;2.30;;
10769;SDS011;5437;50.852;4.438;2023-04-24T14:36:43;4.35;;;2.65;;
10769;SDS011;5437;50.852;4.438;2023-04-24T14:39:09;4.45;;;2.28;;
10769;SDS011;5437;50.852;4.438;2023-04-24T14:41:35;3.65;;;2.40;;
10769;SDS011;5437;50.852;4.438;2023-04-24T14:44:02;3.65;;;2.33;;
10769;SDS011;5437;50.852;4.438;2023-04-24T14:46:29;4.00;;;2.40;;
10769;SDS011;5437;50.852;4.438;2023-04-24T14:48:55;4.25;;;2.13;;
10769;SDS011;5437;50.852;4.438;2023-04-24T14:51:22;5.32;;;2.40;;
10769;SDS011;5437;50.852;4.438;2023-04-24T14:53:48;3.08;;;2.00;;
10769;SDS011;5437;50.852;4.438;2023-04-24T14:56:14;3.70;;;2.03;;
10769;SDS011;5437;50.852;4.438;2023-04-24T14:58:40;4.28;;;2.30;;
10769;SDS011;5437;50.852;4.438;2023-04-24T15:01:06;5.07;;;2.63;;